Lower Matecumbe Key, Florida
Current Conditions -  °F | °C
As of 2:53 AM on Monday 24 Nov 2014 (Local Time) from KMTH Reporting Station
Few Clouds Few Clouds  
Wind Chill: 79°   Ceiling: Unl
Heat Index: 83°   Visibility: 8mi
Dew Point: 78°   Wind: 3mph
Humidity: 97%   Direction: 150°SSE
Pressure: 29.93"   Gusts: NA
Location:  24.8649°N, 80.7192°W
Report Text: KMTH 240753Z AUTO 15003KT 8SM FEW016 26/26 A2993 RMK AO2 SLP134 T02610256
Loading
Personal Weather Stations






























Interactive Weather Map New forecast layout! Learn more

10-Day Weather Forecast

Advertisements
Track Severe Weather on mobile